Time;durP1;ratioP1;P1;durP2;ratioP2;P2;SDS_P1;SDS_P2;PMS_P1;PMS_P2;Temp;Humidity;BMP_temperature;BMP_pressure;BME280_temperature;BME280_humidity;BME280_pressure;Samples;Min_cycle;Max_cycle;Signal;HPM_P1;HPM_P2
2022/01/28 00:02:57;;;;;;;;;;;;;;;;;;5136442;27;20368;-77
2022/01/28 00:04:54;;;;;;;;;;;;;;;;;;5124197;27;19958;-76
2022/01/28 00:07:19;;;;;;;;;;;;;;;;;;5136043;27;19982;-76
2022/01/28 00:09:45;;;;;;;;;;;;;;;;;;5136314;27;20280;-76
2022/01/28 00:12:11;;;;;;;;;;;;;;;;;;5136261;27;20365;-77
2022/01/28 00:38:55;;;;;;;;;;;;;;;;;;5135664;27;19922;-76
2022/01/28 00:41:20;;;;;;;;;;;;;;;;;;5135581;27;19915;-76
2022/01/28 00:43:45;;;;;;;;;;;;;;;;;;5135572;27;19923;-76
2022/01/28 00:46:10;;;;;;;;;;;;;;;;;;5135659;27;19952;-77
2022/01/28 00:48:36;;;;;;;;;;;;;;;;;;5135371;27;20060;-76
2022/01/28 00:51:01;;;;;;;;;;;;;;;;;;5135507;27;19923;-76
2022/01/28 00:53:26;;;;;;;;;;;;;;;;;;5116843;27;19916;-76
2022/01/28 00:55:54;;;;;;;;;;;;;;;;;;5135151;27;19972;-76
2022/01/28 00:58:19;;;;;;;;;;;;;;;;;;5134821;27;20400;-76
2022/01/28 01:00:45;;;;;;;;;;;;;;;;;;5135340;27;19954;-76
2022/01/28 01:03:10;;;;;;;;;;;;;;;;;;5134481;27;19921;-76
2022/01/28 01:05:35;;;;;;;;;;;;;;;;;;5135386;27;19915;-76
2022/01/28 01:08:01;;;;;;;;;;;;;;;;;;5134590;27;19919;-76
2022/01/28 01:10:28;;;;;;;;;;;;;;;;;;5134950;27;19969;-76
2022/01/28 01:12:53;;;;;;;;;;;;;;;;;;5135198;27;20276;-76
2022/01/28 01:15:26;;;;;;;;;;;;;;;;;;5134235;27;19920;-76
2022/01/28 01:23:07;;;;;;;;;;;;;;;;;;5134727;27;19915;-78
2022/01/28 01:25:42;;;;;;;;;;;;;;;;;;5116391;27;20022;-76
2022/01/28 01:28:07;;;;;;;;;;;;;;;;;;5116526;27;19926;-76
2022/01/28 01:30:39;;;;;;;;;;;;;;;;;;5134987;27;19915;-76
2022/01/28 01:33:04;;;;;;;;;;;;;;;;;;5134267;27;20379;-76
2022/01/28 01:35:30;;;;;;;;;;;;;;;;;;5134887;27;19916;-76
2022/01/28 01:37:55;;;;;;;;;;;;;;;;;;5134978;27;19956;-76
2022/01/28 01:40:31;;;;;;;;;;;;;;;;;;5134667;27;19915;-76
2022/01/28 01:43:09;;;;;;;;;;;;;;;;;;5134364;27;19921;-76
2022/01/28 01:45:53;;;;;;;;;;;;;;;;;;5116405;28;19923;-76
2022/01/28 01:53:46;;;;;;;;;;;;;;;;;;5134691;28;19922;-76
2022/01/28 01:56:12;;;;;;;;;;;;;;;;;;5134426;28;19920;-77
2022/01/28 01:58:38;;;;;;;;;;;;;;;;;;5133717;27;19921;-77
2022/01/28 02:01:03;;;;;;;;;;;;;;;;;;5115607;28;19915;-76
2022/01/28 02:03:28;;;;;;;;;;;;;;;;;;5134984;28;20013;-76
2022/01/28 02:05:58;;;;;;;;;;;;;;;;;;5134303;28;19912;-77
2022/01/28 02:08:27;;;;;;;;;;;;;;;;;;5134359;27;20015;-76
2022/01/28 02:10:57;;;;;;;;;;;;;;;;;;5116160;28;19965;-76
2022/01/28 02:13:22;;;;;;;;;;;;;;;;;;5133946;28;19922;-76
2022/01/28 02:15:47;;;;;;;;;;;;;;;;;;5134047;28;20002;-77
2022/01/28 02:18:13;;;;;;;;;;;;;;;;;;5134192;27;19958;-76
2022/01/28 02:20:42;;;;;;;;;;;;;;;;;;5137495;27;19915;-76
2022/01/28 02:23:07;;;;;;;;;;;;;;;;;;5138478;27;19915;-76
2022/01/28 02:25:33;;;;;;;;;;;;;;;;;;5138338;27;20613;-76
2022/01/28 02:28:00;;;;;;;;;;;;;;;;;;5119708;27;20288;-76
2022/01/28 02:30:25;;;;;;;;;;;;;;;;;;5138213;27;20010;-76
2022/01/28 02:32:56;;;;;;;;;;;;;;;;;;5118852;27;20026;-76
2022/01/28 02:35:22;;;;;;;;;;;;;;;;;;5138278;27;19922;-76
2022/01/28 02:37:47;;;;;;;;;;;;;;;;;;5138155;27;20369;-76
2022/01/28 02:40:12;;;;;;;;;;;;;;;;;;5138006;27;19919;-76
2022/01/28 02:42:50;;;;;;;;;;;;;;;;;;5138047;27;19916;-76
2022/01/28 02:45:25;;;;;;;;;;;;;;;;;;5137744;27;19915;-76
2022/01/28 02:47:56;;;;;;;;;;;;;;;;;;5105006;28;19928;-76
2022/01/28 02:50:22;;;;;;;;;;;;;;;;;;5117368;28;19916;-76
2022/01/28 02:53:01;;;;;;;;;;;;;;;;;;5117175;28;19916;-76
2022/01/28 02:55:27;;;;;;;;;;;;;;;;;;5099217;28;19922;-76
2022/01/28 02:58:03;;;;;;;;;;;;;;;;;;5116890;28;20022;-76
2022/01/28 03:00:29;;;;;;;;;;;;;;;;;;5116918;28;19963;-76
2022/01/28 03:02:54;;;;;;;;;;;;;;;;;;5098944;28;19916;-76
2022/01/28 03:05:31;;;;;;;;;;;;;;;;;;5116925;28;19916;-76
2022/01/28 03:07:58;;;;;;;;;;;;;;;;;;5116716;28;19973;-76
2022/01/28 03:10:31;;;;;;;;;;;;;;;;;;5116948;28;20412;-76
2022/01/28 03:15:35;;;;;;;;;;;;;;;;;;5120716;27;20374;-75
2022/01/28 03:20:39;;;;;;;;;;;;;;;;;;5137038;27;19922;-74
2022/01/28 03:23:05;;;;;;;;;;;;;;;;;;5137961;27;19960;-74
2022/01/28 03:25:30;;;;;;;;;;;;;;;;;;5136973;27;20298;-74
2022/01/28 03:27:58;;;;;;;;;;;;;;;;;;5136868;27;20407;-74
2022/01/28 03:30:24;;;;;;;;;;;;;;;;;;5136060;27;19911;-74
2022/01/28 03:32:49;;;;;;;;;;;;;;;;;;5136673;27;19923;-74
2022/01/28 03:35:17;;;;;;;;;;;;;;;;;;5136850;27;19922;-74
2022/01/28 03:37:42;;;;;;;;;;;;;;;;;;5118757;27;20388;-74
2022/01/28 03:40:08;;;;;;;;;;;;;;;;;;5118198;27;19916;-74
2022/01/28 03:42:34;;;;;;;;;;;;;;;;;;5118139;27;19915;-74
2022/01/28 03:44:59;;;;;;;;;;;;;;;;;;5136502;27;19915;-75
2022/01/28 03:47:24;;;;;;;;;;;;;;;;;;5136514;27;19963;-74
2022/01/28 03:49:50;;;;;;;;;;;;;;;;;;5136472;27;19968;-74
2022/01/28 03:52:15;;;;;;;;;;;;;;;;;;5136558;27;19923;-76
2022/01/28 03:54:40;;;;;;;;;;;;;;;;;;5135298;27;19919;-78
2022/01/28 03:57:07;;;;;;;;;;;;;;;;;;5136649;27;19980;-76
2022/01/28 03:59:32;;;;;;;;;;;;;;;;;;5136337;27;19915;-75
2022/01/28 04:01:58;;;;;;;;;;;;;;;;;;5116543;27;19915;-75
2022/01/28 04:12:18;;;;;;;;;;;;;;;;;;5136206;27;19922;-74
2022/01/28 04:14:58;;;;;;;;;;;;;;;;;;5136119;27;19919;-75
2022/01/28 04:17:24;;;;;;;;;;;;;;;;;;5136145;27;19958;-75
2022/01/28 04:19:50;;;;;;;;;;;;;;;;;;5135835;27;19954;-75
2022/01/28 04:22:15;;;;;;;;;;;;;;;;;;5136073;27;20006;-75
2022/01/28 04:24:41;;;;;;;;;;;;;;;;;;5120076;27;19994;-74
2022/01/28 04:27:06;;;;;;;;;;;;;;;;;;5115070;28;20327;-74
2022/01/28 04:29:31;;;;;;;;;;;;;;;;;;5115115;28;19916;-74
2022/01/28 04:31:56;;;;;;;;;;;;;;;;;;5115649;28;19912;-74
2022/01/28 04:34:23;;;;;;;;;;;;;;;;;;5132194;27;20422;-75
2022/01/28 04:37:18;;;;;;;;;;;;;;;;;;5135582;27;19916;-74
2022/01/28 04:39:44;;;;;;;;;;;;;;;;;;5134960;27;19916;-74
2022/01/28 04:44:54;;;;;;;;;;;;;;;;;;5135681;27;19915;-74
2022/01/28 04:55:14;;;;;;;;;;;;;;;;;;5114823;28;19916;-74
2022/01/28 05:00:55;;;;;;;;;;;;;;;;;;5114806;28;19920;-74
2022/01/28 05:11:42;;;;;;;;;;;;;;;;;;5135329;27;19923;-74
2022/01/28 05:14:27;;;;;;;;;;;;;;;;;;5134940;27;19920;-74
2022/01/28 05:28:00;;;;;;;;;;;;;;;;;;5134576;27;19919;-74
2022/01/28 05:30:25;;;;;;;;;;;;;;;;;;5135139;27;19923;-74
2022/01/28 05:32:50;;;;;;;;;;;;;;;;;;5134834;27;19915;-75
2022/01/28 05:35:16;;;;;;;;;;;;;;;;;;5134568;27;19923;-74
2022/01/28 05:37:41;;;;;;;;;;;;;;;;;;5116478;28;19962;-74
2022/01/28 05:40:07;;;;;;;;;;;;;;;;;;5133999;27;19915;-74
2022/01/28 05:42:33;;;;;;;;;;;;;;;;;;5134759;27;19919;-74
2022/01/28 05:44:58;;;;;;;;;;;;;;;;;;5134795;27;19938;-74
2022/01/28 05:47:24;;;;;;;;;;;;;;;;;;5134576;27;20373;-74
2022/01/28 05:49:50;;;;;;;;;;;;;;;;;;5134739;27;19965;-75
2022/01/28 05:52:15;;;;;;;;;;;;;;;;;;5134636;28;20387;-75
2022/01/28 05:54:41;;;;;;;;;;;;;;;;;;5137387;27;19916;-74
2022/01/28 05:57:06;;;;;;;;;;;;;;;;;;5138617;27;19960;-74
2022/01/28 05:59:31;;;;;;;;;;;;;;;;;;5138890;27;19919;-75
2022/01/28 06:01:57;;;;;;;;;;;;;;;;;;5138716;27;19915;-74
2022/01/28 06:04:22;;;;;;;;;;;;;;;;;;5138815;27;19922;-75
2022/01/28 06:06:47;;;;;;;;;;;;;;;;;;5138604;27;19923;-74
2022/01/28 06:09:13;;;;;;;;;;;;;;;;;;5137789;27;20008;-75
2022/01/28 06:11:38;;;;;;;;;;;;;;;;;;5138612;27;19961;-74
2022/01/28 06:14:04;;;;;;;;;;;;;;;;;;5138693;27;19998;-74
2022/01/28 06:16:30;;;;;;;;;;;;;;;;;;5138422;27;20011;-74
2022/01/28 06:18:55;;;;;;;;;;;;;;;;;;5103094;27;19915;-74
2022/01/28 06:21:20;;;;;;;;;;;;;;;;;;5138563;27;19915;-75
2022/01/28 06:23:46;;;;;;;;;;;;;;;;;;5137886;27;20258;-75
2022/01/28 06:26:11;;;;;;;;;;;;;;;;;;5138290;27;20005;-75
2022/01/28 06:28:36;;;;;;;;;;;;;;;;;;5138117;27;19919;-75
2022/01/28 06:31:02;;;;;;;;;;;;;;;;;;5138230;27;19988;-74
2022/01/28 06:33:27;;;;;;;;;;;;;;;;;;5138206;27;19965;-74
2022/01/28 06:35:53;;;;;;;;;;;;;;;;;;5138012;27;19926;-75
2022/01/28 06:38:18;;;;;;;;;;;;;;;;;;5138079;27;19923;-74
2022/01/28 06:40:44;;;;;;;;;;;;;;;;;;5138238;27;19916;-74
2022/01/28 06:43:10;;;;;;;;;;;;;;;;;;5138236;27;19969;-75
2022/01/28 06:45:36;;;;;;;;;;;;;;;;;;5138030;27;19969;-74
2022/01/28 06:48:01;;;;;;;;;;;;;;;;;;5137967;27;20334;-75
2022/01/28 06:50:26;;;;;;;;;;;;;;;;;;5119591;27;19923;-75
2022/01/28 06:52:51;;;;;;;;;;;;;;;;;;5119434;27;19922;-74
2022/01/28 06:55:17;;;;;;;;;;;;;;;;;;5137769;27;19912;-74
2022/01/28 06:57:43;;;;;;;;;;;;;;;;;;5137968;27;20432;-74
2022/01/28 07:00:09;;;;;;;;;;;;;;;;;;5136685;27;20007;-74
2022/01/28 07:02:34;;;;;;;;;;;;;;;;;;5137641;27;20083;-74
2022/01/28 07:05:00;;;;;;;;;;;;;;;;;;5136985;27;19963;-75
2022/01/28 07:07:26;;;;;;;;;;;;;;;;;;5119417;27;19988;-75
2022/01/28 07:09:52;;;;;;;;;;;;;;;;;;5137588;27;20371;-74
2022/01/28 07:12:17;;;;;;;;;;;;;;;;;;5119361;27;19915;-74
2022/01/28 07:14:43;;;;;;;;;;;;;;;;;;5137402;27;19972;-74
2022/01/28 07:17:08;;;;;;;;;;;;;;;;;;5137446;27;19916;-75
2022/01/28 07:19:33;;;;;;;;;;;;;;;;;;5137329;27;20238;-74
2022/01/28 07:21:59;;;;;;;;;;;;;;;;;;5137490;27;20015;-74
2022/01/28 07:24:24;;;;;;;;;;;;;;;;;;5137261;27;19915;-73
2022/01/28 07:26:49;;;;;;;;;;;;;;;;;;5137395;27;19922;-74
2022/01/28 07:29:15;;;;;;;;;;;;;;;;;;5137034;27;19919;-75
2022/01/28 07:31:41;;;;;;;;;;;;;;;;;;5136919;27;19926;-74
2022/01/28 07:34:06;;;;;;;;;;;;;;;;;;5137177;27;19915;-74
2022/01/28 07:36:32;;;;;;;;;;;;;;;;;;5136968;27;19916;-74
2022/01/28 07:38:58;;;;;;;;;;;;;;;;;;5137099;27;19915;-74
2022/01/28 07:41:23;;;;;;;;;;;;;;;;;;5136946;27;19918;-74
2022/01/28 07:43:48;;;;;;;;;;;;;;;;;;5120588;27;19989;-75
2022/01/28 07:46:14;;;;;;;;;;;;;;;;;;5125701;27;19998;-74
2022/01/28 07:48:40;;;;;;;;;;;;;;;;;;5136410;27;19948;-74
2022/01/28 07:51:05;;;;;;;;;;;;;;;;;;5135789;27;20303;-74
2022/01/28 07:53:30;;;;;;;;;;;;;;;;;;5135820;27;19916;-74
2022/01/28 07:55:56;;;;;;;;;;;;;;;;;;5117779;27;19916;-75
2022/01/28 07:58:22;;;;;;;;;;;;;;;;;;5134799;27;19916;-77
2022/01/28 08:00:47;;;;;;;;;;;;;;;;;;5136513;27;19916;-75
2022/01/28 08:03:13;;;;;;;;;;;;;;;;;;5136381;27;19926;-74
2022/01/28 08:05:38;;;;;;;;;;;;;;;;;;5135118;27;19915;-75
2022/01/28 08:08:05;;;;;;;;;;;;;;;;;;5136421;27;19919;-73
2022/01/28 08:10:32;;;;;;;;;;;;;;;;;;5115426;27;19915;-75
2022/01/28 08:13:00;;;;;;;;;;;;;;;;;;5135642;27;19915;-75
2022/01/28 08:15:26;;;;;;;;;;;;;;;;;;5117035;27;20415;-74
2022/01/28 08:17:51;;;;;;;;;;;;;;;;;;5099079;28;19995;-73
2022/01/28 08:20:16;;;;;;;;;;;;;;;;;;5115365;28;19915;-74
2022/01/28 08:22:47;;;;;;;;;;;;;;;;;;5115519;28;19916;-75
2022/01/28 08:25:14;;;;;;;;;;;;;;;;;;5115421;28;19920;-75
2022/01/28 08:27:40;;;;;;;;;;;;;;;;;;5116859;28;20018;-75
2022/01/28 08:30:06;;;;;;;;;;;;;;;;;;5117578;27;20323;-77
2022/01/28 08:32:32;;;;;;;;;;;;;;;;;;5125636;27;20002;-77
2022/01/28 08:34:57;;;;;;;;;;;;;;;;;;5138508;27;20070;-77
2022/01/28 08:37:22;;;;;;;;;;;;;;;;;;5136406;27;20375;-78
2022/01/28 08:39:49;;;;;;;;;;;;;;;;;;5117517;27;20284;-74
2022/01/28 08:42:16;;;;;;;;;;;;;;;;;;5135651;27;20287;-74
2022/01/28 08:44:41;;;;;;;;;;;;;;;;;;5135533;27;20300;-77
2022/01/28 08:47:07;;;;;;;;;;;;;;;;;;5135759;27;19927;-77
2022/01/28 08:49:32;;;;;;;;;;;;;;;;;;5135550;27;19928;-77
2022/01/28 08:51:58;;;;;;;;;;;;;;;;;;5135714;27;19911;-76
2022/01/28 08:54:23;;;;;;;;;;;;;;;;;;5135589;27;19962;-77
2022/01/28 08:56:49;;;;;;;;;;;;;;;;;;5135469;27;19974;-76
2022/01/28 08:59:14;;;;;;;;;;;;;;;;;;5117001;27;19971;-76
2022/01/28 09:01:39;;;;;;;;;;;;;;;;;;5135437;27;20406;-76
2022/01/28 09:04:05;;;;;;;;;;;;;;;;;;5116397;27;20337;-76
2022/01/28 09:06:30;;;;;;;;;;;;;;;;;;5135189;27;20014;-77
2022/01/28 09:08:59;;;;;;;;;;;;;;;;;;5135329;27;20006;-76
2022/01/28 09:13:50;;;;;;;;;;;;;;;;;;5135662;27;19912;-77
2022/01/28 09:16:17;;;;;;;;;;;;;;;;;;5135186;27;20369;-76
2022/01/28 09:18:42;;;;;;;;;;;;;;;;;;5135088;27;19915;-77
2022/01/28 09:21:08;;;;;;;;;;;;;;;;;;5135320;27;19915;-74
2022/01/28 09:23:33;;;;;;;;;;;;;;;;;;5135181;27;19926;-75
2022/01/28 09:25:58;;;;;;;;;;;;;;;;;;5116983;27;20056;-74
2022/01/28 09:28:24;;;;;;;;;;;;;;;;;;5135267;27;20403;-75
2022/01/28 09:30:49;;;;;;;;;;;;;;;;;;5135319;27;19922;-74
2022/01/28 09:33:14;;;;;;;;;;;;;;;;;;5116828;28;19919;-73
2022/01/28 09:35:41;;;;;;;;;;;;;;;;;;5116532;28;19915;-75
2022/01/28 09:38:07;;;;;;;;;;;;;;;;;;5133941;27;19975;-76
2022/01/28 09:40:32;;;;;;;;;;;;;;;;;;5134699;27;19919;-74
2022/01/28 09:42:59;;;;;;;;;;;;;;;;;;5134483;27;19922;-73
2022/01/28 09:45:25;;;;;;;;;;;;;;;;;;5134701;27;20337;-73
2022/01/28 09:47:53;;;;;;;;;;;;;;;;;;5134447;27;19971;-74
2022/01/28 09:50:21;;;;;;;;;;;;;;;;;;5134610;27;19922;-74
2022/01/28 09:52:46;;;;;;;;;;;;;;;;;;5134664;28;20387;-74
2022/01/28 09:55:12;;;;;;;;;;;;;;;;;;5134504;28;19950;-75
2022/01/28 09:57:38;;;;;;;;;;;;;;;;;;5116194;28;19946;-75
2022/01/28 10:00:05;;;;;;;;;;;;;;;;;;5133782;27;19958;-75
2022/01/28 10:02:59;;;;;;;;;;;;;;;;;;5133961;28;20269;-77
2022/01/28 10:05:27;;;;;;;;;;;;;;;;;;5115340;28;19922;-76
2022/01/28 10:07:58;;;;;;;;;;;;;;;;;;5133497;28;20014;-75
2022/01/28 10:10:24;;;;;;;;;;;;;;;;;;5135337;27;19922;-79
2022/01/28 10:13:06;;;;;;;;;;;;;;;;;;5139796;28;20296;-83
2022/01/28 10:15:31;;;;;;;;;;;;;;;;;;5130845;28;19919;-81
2022/01/28 10:17:58;;;;;;;;;;;;;;;;;;5133643;28;21578;-86
2022/01/28 10:20:25;;;;;;;;;;;;;;;;;;5111928;28;19939;-84
2022/01/28 10:22:58;;;;;;;;;;;;;;;;;;5131023;28;20301;-84
2022/01/28 10:25:34;;;;;;;;;;;;;;;;;;5129038;28;19921;-78
2022/01/28 10:28:07;;;;;;;;;;;;;;;;;;5104878;28;19969;-80
2022/01/28 10:30:36;;;;;;;;;;;;;;;;;;5129545;28;20372;-81
2022/01/28 10:33:09;;;;;;;;;;;;;;;;;;5129001;28;19916;-81
2022/01/28 10:35:34;;;;;;;;;;;;;;;;;;5126774;28;20349;-79
2022/01/28 10:37:59;;;;;;;;;;;;;;;;;;5109046;28;19915;-79
2022/01/28 10:40:24;;;;;;;;;;;;;;;;;;5126525;27;19920;-80
2022/01/28 10:42:52;;;;;;;;;;;;;;;;;;5130633;27;19927;-84
2022/01/28 10:45:19;;;;;;;;;;;;;;;;;;5133115;27;19944;-79
2022/01/28 10:47:44;;;;;;;;;;;;;;;;;;5129749;27;20380;-89
2022/01/28 10:50:28;;;;;;;;;;;;;;;;;;5106098;27;19916;-85
2022/01/28 10:52:57;;;;;;;;;;;;;;;;;;5123063;28;19926;-84
2022/01/28 10:55:22;;;;;;;;;;;;;;;;;;5086601;28;20368;-81
2022/01/28 10:58:24;;;;;;;;;;;;;;;;;;5121449;28;19923;-83
2022/01/28 11:00:53;;;;;;;;;;;;;;;;;;5038143;28;20375;-80
2022/01/28 11:03:26;;;;;;;;;;;;;;;;;;5088845;28;19916;-85
2022/01/28 11:05:54;;;;;;;;;;;;;;;;;;5121623;28;19923;-85
2022/01/28 11:08:19;;;;;;;;;;;;;;;;;;5086089;28;19919;-88
2022/01/28 11:10:45;;;;;;;;;;;;;;;;;;5119611;28;19923;-85
2022/01/28 11:13:10;;;;;;;;;;;;;;;;;;5125916;28;20002;-85
2022/01/28 11:15:35;;;;;;;;;;;;;;;;;;5125221;27;20005;-80
2022/01/28 11:18:02;;;;;;;;;;;;;;;;;;5122054;27;19957;-87
2022/01/28 11:20:47;;;;;;;;;;;;;;;;;;5105361;27;19968;-84
2022/01/28 11:23:17;;;;;;;;;;;;;;;;;;5140070;27;19923;-79
2022/01/28 11:25:51;;;;;;;;;;;;;;;;;;5124357;27;20018;-80
2022/01/28 11:28:17;;;;;;;;;;;;;;;;;;5141708;27;20372;-82
2022/01/28 11:30:49;;;;;;;;;;;;;;;;;;5145457;27;19991;-85
2022/01/28 11:33:15;;;;;;;;;;;;;;;;;;5149458;27;19915;-85
2022/01/28 11:35:49;;;;;;;;;;;;;;;;;;5094183;27;19927;-85
2022/01/28 11:38:23;;;;;;;;;;;;;;;;;;5139695;27;20284;-79
2022/01/28 11:40:58;;;;;;;;;;;;;;;;;;5099215;28;19986;-78
2022/01/28 11:43:25;;;;;;;;;;;;;;;;;;5117537;28;19940;-80
2022/01/28 11:46:06;;;;;;;;;;;;;;;;;;5117941;28;19970;-78
2022/01/28 11:49:02;;;;;;;;;;;;;;;;;;5116564;28;19924;-82
2022/01/28 11:51:35;;;;;;;;;;;;;;;;;;5096817;28;19922;-87
2022/01/28 11:54:05;;;;;;;;;;;;;;;;;;5100860;28;19916;-86
2022/01/28 11:56:31;;;;;;;;;;;;;;;;;;5101130;28;19962;-85
2022/01/28 11:59:00;;;;;;;;;;;;;;;;;;5118073;27;20370;-88
2022/01/28 12:01:46;;;;;;;;;;;;;;;;;;5098619;28;19937;-88
2022/01/28 12:04:34;;;;;;;;;;;;;;;;;;5068824;28;19916;-83
2022/01/28 12:07:01;;;;;;;;;;;;;;;;;;5120514;28;20312;-81
2022/01/28 12:09:28;;;;;;;;;;;;;;;;;;5101770;28;20269;-81
2022/01/28 12:11:53;;;;;;;;;;;;;;;;;;5115420;27;20273;-79
2022/01/28 12:14:39;;;;;;;;;;;;;;;;;;5138571;27;19915;-79
2022/01/28 12:17:23;;;;;;;;;;;;;;;;;;5137992;27;20257;-79
2022/01/28 12:20:08;;;;;;;;;;;;;;;;;;5140705;27;19982;-79
2022/01/28 12:23:01;;;;;;;;;;;;;;;;;;5125037;27;19923;-82
2022/01/28 12:25:37;;;;;;;;;;;;;;;;;;5109314;27;19922;-80
2022/01/28 12:28:21;;;;;;;;;;;;;;;;;;5120004;27;19942;-83
2022/01/28 12:30:48;;;;;;;;;;;;;;;;;;5137419;27;20422;-80
2022/01/28 12:33:14;;;;;;;;;;;;;;;;;;5099994;28;20018;-81
2022/01/28 12:35:41;;;;;;;;;;;;;;;;;;5117176;28;20333;-80
2022/01/28 12:38:06;;;;;;;;;;;;;;;;;;5116811;27;20429;-83
2022/01/28 12:40:36;;;;;;;;;;;;;;;;;;5137779;27;19916;-80
2022/01/28 12:43:05;;;;;;;;;;;;;;;;;;5113221;28;20422;-86
2022/01/28 12:45:30;;;;;;;;;;;;;;;;;;5100442;28;19916;-80
2022/01/28 12:47:56;;;;;;;;;;;;;;;;;;5132436;27;20421;-78
2022/01/28 12:50:22;;;;;;;;;;;;;;;;;;5138864;27;19971;-77
2022/01/28 12:52:47;;;;;;;;;;;;;;;;;;5137673;27;19916;-79
2022/01/28 12:55:13;;;;;;;;;;;;;;;;;;5138277;27;20434;-80
2022/01/28 12:57:42;;;;;;;;;;;;;;;;;;5119906;27;19915;-78
2022/01/28 13:00:08;;;;;;;;;;;;;;;;;;5120861;27;19921;-80
2022/01/28 13:02:34;;;;;;;;;;;;;;;;;;5138009;27;20022;-81
2022/01/28 13:09:55;;;;;;;;;;;;;;;;;;5138281;27;20413;-83
2022/01/28 13:12:25;;;;;;;;;;;;;;;;;;5139219;27;19916;-83
2022/01/28 13:14:50;;;;;;;;;;;;;;;;;;5138216;27;19922;-80
2022/01/28 13:17:20;;;;;;;;;;;;;;;;;;5138989;27;19915;-83
2022/01/28 13:19:52;;;;;;;;;;;;;;;;;;5123241;27;19916;-77
2022/01/28 13:22:21;;;;;;;;;;;;;;;;;;5142821;27;19926;-81
2022/01/28 13:24:51;;;;;;;;;;;;;;;;;;5103926;28;19916;-82
2022/01/28 13:27:17;;;;;;;;;;;;;;;;;;5124252;27;19964;-84
2022/01/28 13:29:45;;;;;;;;;;;;;;;;;;5121949;27;19915;-82
2022/01/28 13:32:10;;;;;;;;;;;;;;;;;;5140041;27;19915;-79
2022/01/28 13:35:05;;;;;;;;;;;;;;;;;;5121119;27;19922;-78
2022/01/28 13:37:31;;;;;;;;;;;;;;;;;;5114263;27;19916;-78
2022/01/28 13:39:57;;;;;;;;;;;;;;;;;;5136943;27;19965;-79
2022/01/28 13:42:23;;;;;;;;;;;;;;;;;;5120251;28;19916;-81
2022/01/28 13:44:49;;;;;;;;;;;;;;;;;;5121441;28;19915;-82
2022/01/28 13:47:17;;;;;;;;;;;;;;;;;;5106468;27;20360;-87
2022/01/28 13:49:42;;;;;;;;;;;;;;;;;;5122477;28;19923;-85
2022/01/28 13:52:08;;;;;;;;;;;;;;;;;;5123542;28;19915;-84
2022/01/28 13:54:34;;;;;;;;;;;;;;;;;;5138531;28;19916;-86
2022/01/28 13:57:00;;;;;;;;;;;;;;;;;;5105279;28;19916;-82
2022/01/28 13:59:29;;;;;;;;;;;;;;;;;;5120087;28;20394;-78
2022/01/28 14:01:56;;;;;;;;;;;;;;;;;;5137896;28;19926;-81
2022/01/28 14:04:22;;;;;;;;;;;;;;;;;;5139427;28;19922;-81
2022/01/28 14:06:48;;;;;;;;;;;;;;;;;;5146430;28;19915;-83
2022/01/28 14:09:16;;;;;;;;;;;;;;;;;;5129289;28;19923;-82
2022/01/28 14:11:42;;;;;;;;;;;;;;;;;;5143368;28;19919;-82
2022/01/28 14:14:19;;;;;;;;;;;;;;;;;;5116976;28;19937;-81
2022/01/28 14:16:46;;;;;;;;;;;;;;;;;;5105050;27;20460;-80
2022/01/28 14:19:11;;;;;;;;;;;;;;;;;;5121997;27;19990;-80
2022/01/28 14:21:37;;;;;;;;;;;;;;;;;;5138126;27;19923;-81
2022/01/28 14:24:03;;;;;;;;;;;;;;;;;;5115346;27;19915;-80
2022/01/28 14:26:29;;;;;;;;;;;;;;;;;;5135130;27;19916;-80
2022/01/28 14:31:39;;;;;;;;;;;;;;;;;;5143677;27;20445;-81
2022/01/28 14:34:04;;;;;;;;;;;;;;;;;;5150465;27;19915;-81
2022/01/28 14:36:40;;;;;;;;;;;;;;;;;;5148889;27;19942;-83
2022/01/28 14:39:05;;;;;;;;;;;;;;;;;;5118005;27;19920;-83
2022/01/28 14:41:37;;;;;;;;;;;;;;;;;;5125437;27;19916;-83
2022/01/28 14:44:03;;;;;;;;;;;;;;;;;;5120820;27;20012;-83
2022/01/28 14:46:29;;;;;;;;;;;;;;;;;;5142459;27;19982;-82
2022/01/28 14:48:54;;;;;;;;;;;;;;;;;;5126107;27;19923;-84
2022/01/28 14:51:19;;;;;;;;;;;;;;;;;;5129441;27;20360;-83
2022/01/28 14:53:45;;;;;;;;;;;;;;;;;;5113469;27;19915;-83
2022/01/28 14:56:10;;;;;;;;;;;;;;;;;;5134535;27;19937;-84
2022/01/28 14:58:35;;;;;;;;;;;;;;;;;;5153929;27;19916;-83
2022/01/28 15:01:01;;;;;;;;;;;;;;;;;;5162334;27;19923;-83
2022/01/28 15:03:26;;;;;;;;;;;;;;;;;;5137098;27;19915;-87
2022/01/28 15:05:51;;;;;;;;;;;;;;;;;;5137314;27;19937;-83
2022/01/28 15:08:25;;;;;;;;;;;;;;;;;;5134676;27;19919;-83
2022/01/28 15:10:53;;;;;;;;;;;;;;;;;;5116188;27;19997;-83
2022/01/28 15:13:18;;;;;;;;;;;;;;;;;;5131808;27;19911;-84
2022/01/28 15:15:44;;;;;;;;;;;;;;;;;;5153667;27;19945;-85
2022/01/28 15:18:09;;;;;;;;;;;;;;;;;;5115904;27;20410;-83
2022/01/28 15:20:35;;;;;;;;;;;;;;;;;;5153229;27;19983;-84
2022/01/28 15:23:00;;;;;;;;;;;;;;;;;;5133827;27;19915;-83
2022/01/28 15:25:25;;;;;;;;;;;;;;;;;;5152341;27;19921;-83
2022/01/28 15:27:51;;;;;;;;;;;;;;;;;;5134411;27;19919;-83
2022/01/28 15:38:03;;;;;;;;;;;;;;;;;;5154300;27;19915;-84
2022/01/28 15:40:29;;;;;;;;;;;;;;;;;;5114692;28;19916;-83
2022/01/28 15:43:00;;;;;;;;;;;;;;;;;;5131144;28;19938;-83
2022/01/28 15:45:29;;;;;;;;;;;;;;;;;;5130244;28;20334;-83
2022/01/28 15:47:54;;;;;;;;;;;;;;;;;;5129316;28;19945;-83
2022/01/28 15:50:20;;;;;;;;;;;;;;;;;;5129511;28;19915;-83
2022/01/28 15:52:46;;;;;;;;;;;;;;;;;;5129803;28;19915;-82
2022/01/28 15:55:11;;;;;;;;;;;;;;;;;;5109250;28;19965;-83
2022/01/28 15:57:37;;;;;;;;;;;;;;;;;;5091360;28;19962;-85
2022/01/28 16:00:03;;;;;;;;;;;;;;;;;;5126556;28;19915;-83
2022/01/28 16:02:28;;;;;;;;;;;;;;;;;;5125445;28;19984;-83
2022/01/28 16:04:54;;;;;;;;;;;;;;;;;;5106728;28;20376;-83
2022/01/28 16:07:19;;;;;;;;;;;;;;;;;;5092950;27;19923;-83
2022/01/28 16:09:52;;;;;;;;;;;;;;;;;;5127927;27;19945;-83
2022/01/28 16:12:44;;;;;;;;;;;;;;;;;;5127477;27;19915;-84
2022/01/28 16:15:20;;;;;;;;;;;;;;;;;;5146000;27;19926;-86
2022/01/28 16:17:45;;;;;;;;;;;;;;;;;;5146021;27;19936;-83
2022/01/28 16:20:11;;;;;;;;;;;;;;;;;;5146103;27;20265;-83
2022/01/28 16:22:36;;;;;;;;;;;;;;;;;;5126852;27;19916;-85
2022/01/28 16:25:01;;;;;;;;;;;;;;;;;;5126406;27;19915;-83
2022/01/28 16:27:27;;;;;;;;;;;;;;;;;;5126226;27;19969;-83
2022/01/28 16:29:53;;;;;;;;;;;;;;;;;;5108489;27;20292;-83
2022/01/28 16:32:18;;;;;;;;;;;;;;;;;;5145797;27;19915;-83
2022/01/28 16:34:44;;;;;;;;;;;;;;;;;;5144690;27;19927;-84
2022/01/28 16:37:09;;;;;;;;;;;;;;;;;;5142845;27;19921;-82
2022/01/28 16:39:37;;;;;;;;;;;;;;;;;;5105153;27;19947;-83
2022/01/28 16:42:06;;;;;;;;;;;;;;;;;;5113803;28;19916;-83
2022/01/28 16:44:33;;;;;;;;;;;;;;;;;;5122352;28;19904;-85
2022/01/28 16:46:59;;;;;;;;;;;;;;;;;;5120244;28;19916;-83
2022/01/28 16:49:24;;;;;;;;;;;;;;;;;;5135964;28;19924;-84
2022/01/28 16:51:51;;;;;;;;;;;;;;;;;;5134892;27;19923;-85
2022/01/28 16:54:17;;;;;;;;;;;;;;;;;;5132222;28;19938;-84
2022/01/28 16:56:42;;;;;;;;;;;;;;;;;;5132827;28;19920;-83
2022/01/28 16:59:07;;;;;;;;;;;;;;;;;;5113391;28;19927;-83
2022/01/28 17:01:33;;;;;;;;;;;;;;;;;;5126582;27;19918;-83
2022/01/28 17:03:59;;;;;;;;;;;;;;;;;;5153245;27;19900;-84
2022/01/28 17:06:27;;;;;;;;;;;;;;;;;;5151440;27;20308;-84
2022/01/28 17:08:56;;;;;;;;;;;;;;;;;;5152056;27;19919;-83
2022/01/28 17:13:48;;;;;;;;;;;;;;;;;;5133338;27;19923;-83
2022/01/28 17:16:14;;;;;;;;;;;;;;;;;;5152370;27;20270;-83
2022/01/28 17:18:39;;;;;;;;;;;;;;;;;;5134488;27;19915;-83
2022/01/28 17:21:05;;;;;;;;;;;;;;;;;;5133734;27;19915;-83
2022/01/28 17:23:32;;;;;;;;;;;;;;;;;;5146061;27;19916;-84
2022/01/28 17:25:57;;;;;;;;;;;;;;;;;;5139167;27;19919;-80
2022/01/28 17:28:23;;;;;;;;;;;;;;;;;;5139867;27;19919;-80
2022/01/28 17:30:49;;;;;;;;;;;;;;;;;;5140150;27;19915;-81
2022/01/28 17:33:14;;;;;;;;;;;;;;;;;;5132590;27;19923;-81
2022/01/28 17:35:39;;;;;;;;;;;;;;;;;;5119944;28;19916;-80
2022/01/28 17:38:05;;;;;;;;;;;;;;;;;;5118277;28;20274;-80
2022/01/28 17:40:33;;;;;;;;;;;;;;;;;;5118622;28;19930;-80
2022/01/28 17:42:59;;;;;;;;;;;;;;;;;;5117507;28;19973;-78
2022/01/28 17:45:24;;;;;;;;;;;;;;;;;;5117055;28;20029;-79
2022/01/28 17:47:50;;;;;;;;;;;;;;;;;;5116760;28;19927;-79
2022/01/28 17:50:15;;;;;;;;;;;;;;;;;;5116738;28;19920;-80
2022/01/28 17:52:41;;;;;;;;;;;;;;;;;;5116243;28;19960;-78
2022/01/28 17:55:06;;;;;;;;;;;;;;;;;;5114102;28;20381;-77
2022/01/28 17:57:32;;;;;;;;;;;;;;;;;;5115198;28;19916;-78
2022/01/28 17:59:57;;;;;;;;;;;;;;;;;;5115571;28;20635;-77
2022/01/28 18:02:22;;;;;;;;;;;;;;;;;;5130973;28;19922;-78
2022/01/28 18:04:48;;;;;;;;;;;;;;;;;;5135076;28;19916;-77
2022/01/28 18:07:13;;;;;;;;;;;;;;;;;;5134505;28;19968;-77
2022/01/28 18:09:38;;;;;;;;;;;;;;;;;;5134503;27;19926;-77
2022/01/28 18:12:04;;;;;;;;;;;;;;;;;;5116110;28;19929;-78
2022/01/28 18:14:29;;;;;;;;;;;;;;;;;;5134596;28;20276;-77
2022/01/28 18:16:55;;;;;;;;;;;;;;;;;;5134394;28;20032;-77
2022/01/28 18:19:21;;;;;;;;;;;;;;;;;;5116040;28;19915;-78
2022/01/28 18:21:46;;;;;;;;;;;;;;;;;;5134264;28;19915;-77
2022/01/28 18:24:12;;;;;;;;;;;;;;;;;;5134613;28;20361;-77
2022/01/28 18:26:37;;;;;;;;;;;;;;;;;;5124565;28;19916;-77
2022/01/28 18:29:06;;;;;;;;;;;;;;;;;;5122738;28;19943;-77
2022/01/28 18:31:33;;;;;;;;;;;;;;;;;;5090352;28;20331;-77